sensor_id;sensor_type;location;lat;lon;timestamp;P1;durP1;ratioP1;P2;durP2;ratioP2
21979;SDS011;11154;48.558;9.234;2023-03-31T00:00:44;4.28;;;1.95;;
21979;SDS011;11154;48.558;9.234;2023-03-31T00:02:47;4.45;;;1.65;;
21979;SDS011;11154;48.558;9.234;2023-03-31T00:04:48;4.53;;;1.90;;
21979;SDS011;11154;48.558;9.234;2023-03-31T00:06:52;4.45;;;1.50;;
21979;SDS011;11154;48.558;9.234;2023-03-31T00:08:55;6.15;;;1.92;;
21979;SDS011;11154;48.558;9.234;2023-03-31T00:11:01;6.93;;;2.00;;
21979;SDS011;11154;48.558;9.234;2023-03-31T00:13:04;5.97;;;1.67;;
21979;SDS011;11154;48.558;9.234;2023-03-31T00:15:06;3.67;;;1.77;;
21979;SDS011;11154;48.558;9.234;2023-03-31T00:17:08;4.45;;;1.83;;
21979;SDS011;11154;48.558;9.234;2023-03-31T00:19:11;4.65;;;1.73;;
21979;SDS011;11154;48.558;9.234;2023-03-31T00:21:19;3.45;;;1.80;;
21979;SDS011;11154;48.558;9.234;2023-03-31T00:23:27;4.85;;;1.70;;
21979;SDS011;11154;48.558;9.234;2023-03-31T00:25:31;5.05;;;2.25;;
21979;SDS011;11154;48.558;9.234;2023-03-31T00:27:33;4.93;;;2.13;;
21979;SDS011;11154;48.558;9.234;2023-03-31T00:29:35;4.30;;;1.77;;
21979;SDS011;11154;48.558;9.234;2023-03-31T00:31:40;5.07;;;2.03;;
21979;SDS011;11154;48.558;9.234;2023-03-31T00:33:41;5.10;;;2.10;;
21979;SDS011;11154;48.558;9.234;2023-03-31T00:35:43;5.78;;;1.90;;
21979;SDS011;11154;48.558;9.234;2023-03-31T00:37:45;7.38;;;2.20;;
21979;SDS011;11154;48.558;9.234;2023-03-31T00:39:46;7.60;;;2.08;;
21979;SDS011;11154;48.558;9.234;2023-03-31T00:41:49;5.20;;;1.73;;
21979;SDS011;11154;48.558;9.234;2023-03-31T00:44:04;5.00;;;1.63;;
21979;SDS011;11154;48.558;9.234;2023-03-31T00:46:10;5.13;;;1.52;;
21979;SDS011;11154;48.558;9.234;2023-03-31T00:48:17;8.63;;;2.30;;
21979;SDS011;11154;48.558;9.234;2023-03-31T00:50:21;5.85;;;1.92;;
21979;SDS011;11154;48.558;9.234;2023-03-31T00:52:29;3.97;;;1.70;;
21979;SDS011;11154;48.558;9.234;2023-03-31T00:54:34;4.00;;;1.92;;
21979;SDS011;11154;48.558;9.234;2023-03-31T00:56:38;6.63;;;1.95;;
21979;SDS011;11154;48.558;9.234;2023-03-31T00:58:45;6.32;;;1.67;;
21979;SDS011;11154;48.558;9.234;2023-03-31T01:00:48;3.20;;;1.60;;
21979;SDS011;11154;48.558;9.234;2023-03-31T01:02:52;3.35;;;1.92;;
21979;SDS011;11154;48.558;9.234;2023-03-31T01:04:58;4.35;;;1.88;;
21979;SDS011;11154;48.558;9.234;2023-03-31T01:07:02;5.82;;;2.00;;
21979;SDS011;11154;48.558;9.234;2023-03-31T01:09:11;4.95;;;1.80;;
21979;SDS011;11154;48.558;9.234;2023-03-31T01:11:17;3.38;;;1.70;;
21979;SDS011;11154;48.558;9.234;2023-03-31T01:13:20;3.92;;;1.98;;
21979;SDS011;11154;48.558;9.234;2023-03-31T01:15:24;4.22;;;2.10;;
21979;SDS011;11154;48.558;9.234;2023-03-31T01:17:26;3.95;;;2.40;;
21979;SDS011;11154;48.558;9.234;2023-03-31T01:19:31;6.18;;;2.42;;
21979;SDS011;11154;48.558;9.234;2023-03-31T01:24:56;3.80;;;2.00;;
21979;SDS011;11154;48.558;9.234;2023-03-31T01:27:21;11.75;;;7.07;;
21979;SDS011;11154;48.558;9.234;2023-03-31T01:29:56;3.25;;;2.22;;
21979;SDS011;11154;48.558;9.234;2023-03-31T01:35:08;9.18;;;2.05;;
21979;SDS011;11154;48.558;9.234;2023-03-31T01:42:37;3.55;;;1.70;;
21979;SDS011;11154;48.558;9.234;2023-03-31T01:44:43;3.55;;;1.88;;
21979;SDS011;11154;48.558;9.234;2023-03-31T01:46:51;5.28;;;2.17;;
21979;SDS011;11154;48.558;9.234;2023-03-31T01:48:58;4.78;;;2.10;;
21979;SDS011;11154;48.558;9.234;2023-03-31T01:51:09;4.28;;;1.95;;
21979;SDS011;11154;48.558;9.234;2023-03-31T01:53:19;4.63;;;1.88;;
21979;SDS011;11154;48.558;9.234;2023-03-31T01:55:25;3.70;;;1.92;;
21979;SDS011;11154;48.558;9.234;2023-03-31T01:57:30;4.07;;;1.73;;
21979;SDS011;11154;48.558;9.234;2023-03-31T01:59:37;3.15;;;1.55;;
21979;SDS011;11154;48.558;9.234;2023-03-31T02:01:44;3.90;;;2.00;;
21979;SDS011;11154;48.558;9.234;2023-03-31T02:03:52;3.50;;;1.75;;
21979;SDS011;11154;48.558;9.234;2023-03-31T02:05:57;4.28;;;1.92;;
21979;SDS011;11154;48.558;9.234;2023-03-31T02:08:05;4.40;;;1.85;;
21979;SDS011;11154;48.558;9.234;2023-03-31T02:10:11;6.13;;;2.30;;
21979;SDS011;11154;48.558;9.234;2023-03-31T02:12:13;5.57;;;2.00;;
21979;SDS011;11154;48.558;9.234;2023-03-31T02:14:19;4.78;;;1.90;;
21979;SDS011;11154;48.558;9.234;2023-03-31T02:16:30;4.10;;;1.83;;
21979;SDS011;11154;48.558;9.234;2023-03-31T02:18:36;4.93;;;1.80;;
21979;SDS011;11154;48.558;9.234;2023-03-31T02:20:40;4.53;;;2.10;;
21979;SDS011;11154;48.558;9.234;2023-03-31T02:22:45;3.80;;;1.83;;
21979;SDS011;11154;48.558;9.234;2023-03-31T02:24:49;6.15;;;2.25;;
21979;SDS011;11154;48.558;9.234;2023-03-31T02:26:55;4.68;;;2.10;;
21979;SDS011;11154;48.558;9.234;2023-03-31T02:29:03;4.93;;;2.10;;
21979;SDS011;11154;48.558;9.234;2023-03-31T02:31:07;3.28;;;1.85;;
21979;SDS011;11154;48.558;9.234;2023-03-31T02:33:19;2.47;;;1.50;;
21979;SDS011;11154;48.558;9.234;2023-03-31T02:35:21;5.10;;;2.28;;
21979;SDS011;11154;48.558;9.234;2023-03-31T02:37:24;5.18;;;2.35;;
21979;SDS011;11154;48.558;9.234;2023-03-31T02:39:28;5.13;;;2.20;;
21979;SDS011;11154;48.558;9.234;2023-03-31T02:41:33;4.05;;;1.85;;
21979;SDS011;11154;48.558;9.234;2023-03-31T02:43:35;7.10;;;2.20;;
21979;SDS011;11154;48.558;9.234;2023-03-31T02:45:41;4.00;;;2.00;;
21979;SDS011;11154;48.558;9.234;2023-03-31T02:47:44;4.13;;;1.98;;
21979;SDS011;11154;48.558;9.234;2023-03-31T02:49:48;7.15;;;2.60;;
21979;SDS011;11154;48.558;9.234;2023-03-31T02:52:11;4.05;;;1.92;;
21979;SDS011;11154;48.558;9.234;2023-03-31T02:54:37;6.70;;;2.78;;
21979;SDS011;11154;48.558;9.234;2023-03-31T02:56:53;3.17;;;1.90;;
21979;SDS011;11154;48.558;9.234;2023-03-31T02:59:14;5.18;;;2.38;;
21979;SDS011;11154;48.558;9.234;2023-03-31T03:01:36;6.93;;;1.83;;
21979;SDS011;11154;48.558;9.234;2023-03-31T03:03:46;9.68;;;2.30;;
21979;SDS011;11154;48.558;9.234;2023-03-31T03:06:01;5.85;;;2.08;;
21979;SDS011;11154;48.558;9.234;2023-03-31T03:08:15;6.82;;;2.75;;
21979;SDS011;11154;48.558;9.234;2023-03-31T03:10:27;6.78;;;2.30;;
21979;SDS011;11154;48.558;9.234;2023-03-31T03:12:37;10.43;;;2.65;;
21979;SDS011;11154;48.558;9.234;2023-03-31T03:14:48;9.50;;;2.67;;
21979;SDS011;11154;48.558;9.234;2023-03-31T03:16:54;5.90;;;2.50;;
21979;SDS011;11154;48.558;9.234;2023-03-31T03:19:02;6.57;;;2.15;;
21979;SDS011;11154;48.558;9.234;2023-03-31T03:21:07;7.32;;;2.53;;
21979;SDS011;11154;48.558;9.234;2023-03-31T03:23:09;10.70;;;2.60;;
21979;SDS011;11154;48.558;9.234;2023-03-31T03:25:11;5.97;;;2.35;;
21979;SDS011;11154;48.558;9.234;2023-03-31T03:27:16;6.82;;;2.35;;
21979;SDS011;11154;48.558;9.234;2023-03-31T03:29:17;5.68;;;2.40;;
21979;SDS011;11154;48.558;9.234;2023-03-31T03:31:19;7.13;;;2.67;;
21979;SDS011;11154;48.558;9.234;2023-03-31T03:33:22;6.40;;;2.40;;
21979;SDS011;11154;48.558;9.234;2023-03-31T03:35:24;5.88;;;2.25;;
21979;SDS011;11154;48.558;9.234;2023-03-31T03:37:27;7.20;;;2.45;;
21979;SDS011;11154;48.558;9.234;2023-03-31T03:39:29;7.95;;;2.42;;
21979;SDS011;11154;48.558;9.234;2023-03-31T03:41:30;8.30;;;2.33;;
21979;SDS011;11154;48.558;9.234;2023-03-31T03:43:33;7.70;;;2.53;;
21979;SDS011;11154;48.558;9.234;2023-03-31T03:45:34;7.68;;;2.67;;
21979;SDS011;11154;48.558;9.234;2023-03-31T03:47:36;6.63;;;2.20;;
21979;SDS011;11154;48.558;9.234;2023-03-31T03:49:37;5.53;;;2.10;;
21979;SDS011;11154;48.558;9.234;2023-03-31T03:51:39;4.35;;;2.35;;
21979;SDS011;11154;48.558;9.234;2023-03-31T03:53:42;8.88;;;2.13;;
21979;SDS011;11154;48.558;9.234;2023-03-31T03:55:44;7.80;;;2.45;;
21979;SDS011;11154;48.558;9.234;2023-03-31T03:57:47;7.38;;;2.35;;
21979;SDS011;11154;48.558;9.234;2023-03-31T03:59:49;6.75;;;2.40;;
21979;SDS011;11154;48.558;9.234;2023-03-31T04:01:51;6.28;;;2.42;;
21979;SDS011;11154;48.558;9.234;2023-03-31T04:03:52;5.63;;;2.30;;
21979;SDS011;11154;48.558;9.234;2023-03-31T04:05:54;5.82;;;2.40;;
21979;SDS011;11154;48.558;9.234;2023-03-31T04:07:55;8.63;;;2.63;;
21979;SDS011;11154;48.558;9.234;2023-03-31T04:09:58;5.18;;;2.13;;
21979;SDS011;11154;48.558;9.234;2023-03-31T04:12:00;7.50;;;2.58;;
21979;SDS011;11154;48.558;9.234;2023-03-31T04:14:02;8.18;;;2.50;;
21979;SDS011;11154;48.558;9.234;2023-03-31T04:16:04;6.13;;;2.10;;
21979;SDS011;11154;48.558;9.234;2023-03-31T04:18:06;3.67;;;2.08;;
21979;SDS011;11154;48.558;9.234;2023-03-31T04:20:09;6.22;;;2.08;;
21979;SDS011;11154;48.558;9.234;2023-03-31T04:22:12;6.82;;;2.65;;
21979;SDS011;11154;48.558;9.234;2023-03-31T04:24:14;6.90;;;3.08;;
21979;SDS011;11154;48.558;9.234;2023-03-31T04:26:22;7.72;;;2.83;;
21979;SDS011;11154;48.558;9.234;2023-03-31T04:28:25;4.70;;;2.10;;
21979;SDS011;11154;48.558;9.234;2023-03-31T04:30:33;7.03;;;2.92;;
21979;SDS011;11154;48.558;9.234;2023-03-31T04:32:38;8.48;;;2.70;;
21979;SDS011;11154;48.558;9.234;2023-03-31T04:34:40;5.68;;;2.40;;
21979;SDS011;11154;48.558;9.234;2023-03-31T04:36:45;8.77;;;2.72;;
21979;SDS011;11154;48.558;9.234;2023-03-31T04:38:48;7.70;;;2.58;;
21979;SDS011;11154;48.558;9.234;2023-03-31T04:40:53;7.13;;;2.67;;
21979;SDS011;11154;48.558;9.234;2023-03-31T04:42:56;6.60;;;2.60;;
21979;SDS011;11154;48.558;9.234;2023-03-31T04:44:58;4.70;;;2.42;;
21979;SDS011;11154;48.558;9.234;2023-03-31T04:46:59;8.63;;;2.72;;
21979;SDS011;11154;48.558;9.234;2023-03-31T04:49:02;6.22;;;2.58;;
21979;SDS011;11154;48.558;9.234;2023-03-31T04:51:04;7.13;;;2.50;;
21979;SDS011;11154;48.558;9.234;2023-03-31T04:53:06;6.10;;;2.38;;
21979;SDS011;11154;48.558;9.234;2023-03-31T04:55:08;6.57;;;2.50;;
21979;SDS011;11154;48.558;9.234;2023-03-31T04:57:10;5.13;;;2.17;;
21979;SDS011;11154;48.558;9.234;2023-03-31T04:59:13;4.03;;;2.25;;
21979;SDS011;11154;48.558;9.234;2023-03-31T05:01:15;4.38;;;1.95;;
21979;SDS011;11154;48.558;9.234;2023-03-31T05:03:18;5.20;;;2.70;;
21979;SDS011;11154;48.558;9.234;2023-03-31T05:05:20;6.75;;;2.33;;
21979;SDS011;11154;48.558;9.234;2023-03-31T05:07:22;5.80;;;2.75;;
21979;SDS011;11154;48.558;9.234;2023-03-31T05:09:23;4.57;;;2.20;;
21979;SDS011;11154;48.558;9.234;2023-03-31T05:11:25;6.38;;;2.50;;
21979;SDS011;11154;48.558;9.234;2023-03-31T05:13:27;7.55;;;2.80;;
21979;SDS011;11154;48.558;9.234;2023-03-31T05:15:30;5.43;;;2.50;;
21979;SDS011;11154;48.558;9.234;2023-03-31T05:17:33;4.32;;;2.35;;
21979;SDS011;11154;48.558;9.234;2023-03-31T05:19:35;8.63;;;2.72;;
21979;SDS011;11154;48.558;9.234;2023-03-31T05:21:37;7.35;;;3.05;;
21979;SDS011;11154;48.558;9.234;2023-03-31T05:23:38;8.68;;;2.65;;
21979;SDS011;11154;48.558;9.234;2023-03-31T05:25:41;7.70;;;3.40;;
21979;SDS011;11154;48.558;9.234;2023-03-31T05:27:42;8.50;;;2.60;;
21979;SDS011;11154;48.558;9.234;2023-03-31T05:29:45;6.53;;;2.60;;
21979;SDS011;11154;48.558;9.234;2023-03-31T05:31:48;9.40;;;3.10;;
21979;SDS011;11154;48.558;9.234;2023-03-31T05:33:50;7.82;;;2.95;;
21979;SDS011;11154;48.558;9.234;2023-03-31T05:35:52;8.15;;;3.00;;
21979;SDS011;11154;48.558;9.234;2023-03-31T05:37:54;7.55;;;2.67;;
21979;SDS011;11154;48.558;9.234;2023-03-31T05:39:55;5.45;;;3.03;;
21979;SDS011;11154;48.558;9.234;2023-03-31T05:41:57;7.85;;;3.25;;
21979;SDS011;11154;48.558;9.234;2023-03-31T05:43:58;6.38;;;3.13;;
21979;SDS011;11154;48.558;9.234;2023-03-31T05:46:01;6.47;;;3.33;;
21979;SDS011;11154;48.558;9.234;2023-03-31T05:48:04;5.90;;;2.95;;
21979;SDS011;11154;48.558;9.234;2023-03-31T05:50:06;8.18;;;3.13;;
21979;SDS011;11154;48.558;9.234;2023-03-31T05:52:08;10.52;;;4.20;;
21979;SDS011;11154;48.558;9.234;2023-03-31T05:54:10;10.88;;;4.13;;
21979;SDS011;11154;48.558;9.234;2023-03-31T05:56:12;9.15;;;3.65;;
21979;SDS011;11154;48.558;9.234;2023-03-31T05:58:14;7.28;;;3.53;;
21979;SDS011;11154;48.558;9.234;2023-03-31T06:00:15;8.50;;;3.58;;
21979;SDS011;11154;48.558;9.234;2023-03-31T06:02:17;10.80;;;3.80;;
21979;SDS011;11154;48.558;9.234;2023-03-31T06:04:20;10.35;;;3.70;;
21979;SDS011;11154;48.558;9.234;2023-03-31T06:06:23;10.15;;;3.72;;
21979;SDS011;11154;48.558;9.234;2023-03-31T06:08:25;7.65;;;3.05;;
21979;SDS011;11154;48.558;9.234;2023-03-31T06:10:27;10.07;;;3.00;;
21979;SDS011;11154;48.558;9.234;2023-03-31T06:12:28;6.53;;;3.00;;
21979;SDS011;11154;48.558;9.234;2023-03-31T06:14:32;8.35;;;3.10;;
21979;SDS011;11154;48.558;9.234;2023-03-31T06:16:33;8.55;;;3.55;;
21979;SDS011;11154;48.558;9.234;2023-03-31T06:18:35;8.18;;;3.58;;
21979;SDS011;11154;48.558;9.234;2023-03-31T06:20:38;7.43;;;3.72;;
21979;SDS011;11154;48.558;9.234;2023-03-31T06:22:41;6.60;;;3.20;;
21979;SDS011;11154;48.558;9.234;2023-03-31T06:24:43;7.53;;;4.40;;
21979;SDS011;11154;48.558;9.234;2023-03-31T06:26:44;10.18;;;4.30;;
21979;SDS011;11154;48.558;9.234;2023-03-31T06:28:46;13.30;;;4.80;;
21979;SDS011;11154;48.558;9.234;2023-03-31T06:30:48;10.35;;;4.57;;
21979;SDS011;11154;48.558;9.234;2023-03-31T06:32:49;10.98;;;4.53;;
21979;SDS011;11154;48.558;9.234;2023-03-31T06:34:51;9.38;;;4.22;;
21979;SDS011;11154;48.558;9.234;2023-03-31T06:36:54;12.63;;;3.75;;
21979;SDS011;11154;48.558;9.234;2023-03-31T06:38:56;11.23;;;4.25;;
21979;SDS011;11154;48.558;9.234;2023-03-31T06:40:57;11.70;;;4.20;;
21979;SDS011;11154;48.558;9.234;2023-03-31T06:42:59;12.43;;;4.50;;
21979;SDS011;11154;48.558;9.234;2023-03-31T06:45:01;7.82;;;3.88;;
21979;SDS011;11154;48.558;9.234;2023-03-31T06:47:02;19.85;;;10.80;;
21979;SDS011;11154;48.558;9.234;2023-03-31T06:49:04;18.75;;;8.55;;
21979;SDS011;11154;48.558;9.234;2023-03-31T06:51:06;19.10;;;11.70;;
21979;SDS011;11154;48.558;9.234;2023-03-31T06:53:10;13.60;;;6.28;;
21979;SDS011;11154;48.558;9.234;2023-03-31T06:55:12;14.48;;;9.82;;
21979;SDS011;11154;48.558;9.234;2023-03-31T06:57:15;10.30;;;4.15;;
21979;SDS011;11154;48.558;9.234;2023-03-31T06:59:16;5.68;;;3.30;;
21979;SDS011;11154;48.558;9.234;2023-03-31T07:01:18;9.88;;;3.40;;
21979;SDS011;11154;48.558;9.234;2023-03-31T07:03:20;7.45;;;3.45;;
21979;SDS011;11154;48.558;9.234;2023-03-31T07:05:24;10.00;;;3.45;;
21979;SDS011;11154;48.558;9.234;2023-03-31T07:07:29;14.48;;;3.60;;
21979;SDS011;11154;48.558;9.234;2023-03-31T07:09:33;9.98;;;3.40;;
21979;SDS011;11154;48.558;9.234;2023-03-31T07:11:34;6.57;;;3.22;;
21979;SDS011;11154;48.558;9.234;2023-03-31T07:13:36;8.95;;;2.83;;
21979;SDS011;11154;48.558;9.234;2023-03-31T07:15:38;6.53;;;2.63;;
21979;SDS011;11154;48.558;9.234;2023-03-31T07:17:39;7.88;;;2.70;;
21979;SDS011;11154;48.558;9.234;2023-03-31T07:19:42;6.05;;;2.53;;
21979;SDS011;11154;48.558;9.234;2023-03-31T07:21:47;6.35;;;2.60;;
21979;SDS011;11154;48.558;9.234;2023-03-31T07:23:48;8.10;;;2.63;;
21979;SDS011;11154;48.558;9.234;2023-03-31T07:25:51;3.67;;;2.10;;
21979;SDS011;11154;48.558;9.234;2023-03-31T07:27:53;4.45;;;2.00;;
21979;SDS011;11154;48.558;9.234;2023-03-31T07:29:55;3.75;;;1.80;;
21979;SDS011;11154;48.558;9.234;2023-03-31T07:31:56;3.63;;;2.05;;
21979;SDS011;11154;48.558;9.234;2023-03-31T07:33:58;6.50;;;2.33;;
21979;SDS011;11154;48.558;9.234;2023-03-31T07:36:02;3.40;;;2.40;;
21979;SDS011;11154;48.558;9.234;2023-03-31T07:38:04;5.90;;;1.90;;
21979;SDS011;11154;48.558;9.234;2023-03-31T07:40:08;3.53;;;1.67;;
21979;SDS011;11154;48.558;9.234;2023-03-31T07:42:12;3.85;;;1.60;;
21979;SDS011;11154;48.558;9.234;2023-03-31T07:44:14;2.33;;;1.58;;
21979;SDS011;11154;48.558;9.234;2023-03-31T07:46:17;4.38;;;1.98;;
21979;SDS011;11154;48.558;9.234;2023-03-31T07:48:21;4.15;;;1.73;;
21979;SDS011;11154;48.558;9.234;2023-03-31T07:50:23;3.63;;;1.55;;
21979;SDS011;11154;48.558;9.234;2023-03-31T07:52:24;1.48;;;1.20;;
21979;SDS011;11154;48.558;9.234;2023-03-31T07:54:26;2.88;;;1.25;;
21979;SDS011;11154;48.558;9.234;2023-03-31T07:56:28;2.25;;;1.55;;
21979;SDS011;11154;48.558;9.234;2023-03-31T07:58:31;3.10;;;1.25;;
21979;SDS011;11154;48.558;9.234;2023-03-31T08:00:33;3.22;;;1.17;;
21979;SDS011;11154;48.558;9.234;2023-03-31T08:02:34;2.53;;;1.10;;
21979;SDS011;11154;48.558;9.234;2023-03-31T08:04:36;1.67;;;1.00;;
21979;SDS011;11154;48.558;9.234;2023-03-31T08:06:38;1.80;;;0.90;;
21979;SDS011;11154;48.558;9.234;2023-03-31T08:08:39;1.42;;;0.93;;
21979;SDS011;11154;48.558;9.234;2023-03-31T08:10:42;1.33;;;0.80;;
21979;SDS011;11154;48.558;9.234;2023-03-31T08:12:44;1.23;;;0.93;;
21979;SDS011;11154;48.558;9.234;2023-03-31T08:14:47;2.38;;;0.82;;
21979;SDS011;11154;48.558;9.234;2023-03-31T08:16:48;2.10;;;0.95;;
21979;SDS011;11154;48.558;9.234;2023-03-31T08:18:50;3.15;;;1.02;;
21979;SDS011;11154;48.558;9.234;2023-03-31T08:20:52;1.80;;;0.93;;
21979;SDS011;11154;48.558;9.234;2023-03-31T08:22:54;1.58;;;0.88;;
21979;SDS011;11154;48.558;9.234;2023-03-31T08:24:55;2.00;;;0.88;;
21979;SDS011;11154;48.558;9.234;2023-03-31T08:26:57;2.00;;;0.80;;
21979;SDS011;11154;48.558;9.234;2023-03-31T08:28:58;1.65;;;0.82;;
21979;SDS011;11154;48.558;9.234;2023-03-31T08:31:03;1.75;;;0.80;;
21979;SDS011;11154;48.558;9.234;2023-03-31T08:33:05;0.77;;;0.60;;
21979;SDS011;11154;48.558;9.234;2023-03-31T08:35:08;2.30;;;0.75;;
21979;SDS011;11154;48.558;9.234;2023-03-31T08:37:09;1.25;;;0.70;;
21979;SDS011;11154;48.558;9.234;2023-03-31T08:39:12;0.90;;;0.70;;
21979;SDS011;11154;48.558;9.234;2023-03-31T08:41:22;0.93;;;0.43;;
21979;SDS011;11154;48.558;9.234;2023-03-31T08:43:32;0.90;;;0.40;;
21979;SDS011;11154;48.558;9.234;2023-03-31T08:45:38;1.02;;;0.57;;
21979;SDS011;11154;48.558;9.234;2023-03-31T08:47:44;1.17;;;0.60;;
21979;SDS011;11154;48.558;9.234;2023-03-31T08:49:51;2.28;;;0.70;;
21979;SDS011;11154;48.558;9.234;2023-03-31T08:51:55;3.25;;;1.40;;
21979;SDS011;11154;48.558;9.234;2023-03-31T08:54:00;0.95;;;0.85;;
21979;SDS011;11154;48.558;9.234;2023-03-31T08:56:05;1.50;;;0.70;;
21979;SDS011;11154;48.558;9.234;2023-03-31T08:58:17;2.45;;;0.80;;
21979;SDS011;11154;48.558;9.234;2023-03-31T09:00:29;1.73;;;0.70;;
21979;SDS011;11154;48.558;9.234;2023-03-31T09:02:40;0.85;;;0.50;;
21979;SDS011;11154;48.558;9.234;2023-03-31T09:04:53;3.20;;;0.60;;
21979;SDS011;11154;48.558;9.234;2023-03-31T09:07:23;2.22;;;0.60;;
21979;SDS011;11154;48.558;9.234;2023-03-31T09:09:36;1.27;;;0.60;;
21979;SDS011;11154;48.558;9.234;2023-03-31T09:11:49;0.93;;;0.50;;
21979;SDS011;11154;48.558;9.234;2023-03-31T09:14:04;1.35;;;0.60;;
21979;SDS011;11154;48.558;9.234;2023-03-31T09:16:21;1.45;;;0.50;;
21979;SDS011;11154;48.558;9.234;2023-03-31T09:18:30;2.05;;;0.90;;
21979;SDS011;11154;48.558;9.234;2023-03-31T09:20:35;1.33;;;0.63;;
21979;SDS011;11154;48.558;9.234;2023-03-31T09:22:41;2.78;;;0.65;;
21979;SDS011;11154;48.558;9.234;2023-03-31T09:24:50;1.35;;;0.77;;
21979;SDS011;11154;48.558;9.234;2023-03-31T09:26:57;1.33;;;0.70;;
21979;SDS011;11154;48.558;9.234;2023-03-31T09:29:02;1.45;;;0.60;;
21979;SDS011;11154;48.558;9.234;2023-03-31T09:31:15;1.60;;;0.60;;
21979;SDS011;11154;48.558;9.234;2023-03-31T09:33:22;1.65;;;0.60;;
21979;SDS011;11154;48.558;9.234;2023-03-31T09:35:32;4.63;;;0.80;;
21979;SDS011;11154;48.558;9.234;2023-03-31T09:37:33;2.53;;;0.80;;
21979;SDS011;11154;48.558;9.234;2023-03-31T09:39:35;2.45;;;0.80;;
21979;SDS011;11154;48.558;9.234;2023-03-31T09:41:38;2.80;;;1.00;;
21979;SDS011;11154;48.558;9.234;2023-03-31T09:43:43;1.73;;;0.90;;
21979;SDS011;11154;48.558;9.234;2023-03-31T09:45:46;2.83;;;0.82;;
21979;SDS011;11154;48.558;9.234;2023-03-31T09:47:49;3.38;;;0.88;;
21979;SDS011;11154;48.558;9.234;2023-03-31T09:49:52;3.28;;;0.98;;
21979;SDS011;11154;48.558;9.234;2023-03-31T09:52:01;2.42;;;0.60;;
21979;SDS011;11154;48.558;9.234;2023-03-31T09:54:07;1.95;;;0.80;;
21979;SDS011;11154;48.558;9.234;2023-03-31T09:58:36;2.83;;;1.27;;
21979;SDS011;11154;48.558;9.234;2023-03-31T10:00:42;4.50;;;1.00;;
21979;SDS011;11154;48.558;9.234;2023-03-31T10:02:56;4.40;;;1.30;;
21979;SDS011;11154;48.558;9.234;2023-03-31T10:05:06;8.00;;;1.45;;
21979;SDS011;11154;48.558;9.234;2023-03-31T10:07:21;2.60;;;0.93;;
21979;SDS011;11154;48.558;9.234;2023-03-31T10:09:25;4.70;;;1.15;;
21979;SDS011;11154;48.558;9.234;2023-03-31T10:11:29;5.97;;;1.10;;
21979;SDS011;11154;48.558;9.234;2023-03-31T10:13:34;3.80;;;1.20;;
21979;SDS011;11154;48.558;9.234;2023-03-31T10:17:43;6.55;;;1.20;;
21979;SDS011;11154;48.558;9.234;2023-03-31T10:19:48;4.70;;;1.30;;
21979;SDS011;11154;48.558;9.234;2023-03-31T10:21:55;7.45;;;1.45;;
21979;SDS011;11154;48.558;9.234;2023-03-31T10:24:00;5.55;;;1.52;;
21979;SDS011;11154;48.558;9.234;2023-03-31T10:26:02;4.75;;;1.42;;
21979;SDS011;11154;48.558;9.234;2023-03-31T10:28:05;6.85;;;1.50;;
21979;SDS011;11154;48.558;9.234;2023-03-31T10:30:09;4.97;;;1.50;;
21979;SDS011;11154;48.558;9.234;2023-03-31T10:32:14;3.22;;;1.10;;
21979;SDS011;11154;48.558;9.234;2023-03-31T10:34:22;6.85;;;1.48;;
21979;SDS011;11154;48.558;9.234;2023-03-31T10:36:26;6.63;;;1.60;;
21979;SDS011;11154;48.558;9.234;2023-03-31T10:38:29;5.50;;;1.42;;
21979;SDS011;11154;48.558;9.234;2023-03-31T10:40:36;5.07;;;1.50;;
21979;SDS011;11154;48.558;9.234;2023-03-31T10:42:38;7.55;;;1.85;;
21979;SDS011;11154;48.558;9.234;2023-03-31T10:44:40;5.43;;;1.50;;
21979;SDS011;11154;48.558;9.234;2023-03-31T10:46:43;5.00;;;1.27;;
21979;SDS011;11154;48.558;9.234;2023-03-31T10:48:48;7.80;;;1.80;;
21979;SDS011;11154;48.558;9.234;2023-03-31T10:50:54;6.85;;;1.58;;
21979;SDS011;11154;48.558;9.234;2023-03-31T10:53:01;4.10;;;1.38;;
21979;SDS011;11154;48.558;9.234;2023-03-31T10:55:05;5.65;;;1.45;;
21979;SDS011;11154;48.558;9.234;2023-03-31T10:57:17;5.43;;;1.37;;
21979;SDS011;11154;48.558;9.234;2023-03-31T10:59:34;5.53;;;1.58;;
21979;SDS011;11154;48.558;9.234;2023-03-31T11:01:50;8.20;;;1.67;;
21979;SDS011;11154;48.558;9.234;2023-03-31T11:04:09;5.93;;;1.73;;
21979;SDS011;11154;48.558;9.234;2023-03-31T11:06:25;5.10;;;1.13;;
21979;SDS011;11154;48.558;9.234;2023-03-31T11:08:35;6.97;;;1.67;;
21979;SDS011;11154;48.558;9.234;2023-03-31T11:10:59;5.20;;;1.38;;
21979;SDS011;11154;48.558;9.234;2023-03-31T11:13:20;4.47;;;1.08;;
21979;SDS011;11154;48.558;9.234;2023-03-31T11:15:28;5.45;;;1.13;;
21979;SDS011;11154;48.558;9.234;2023-03-31T11:17:43;6.10;;;1.70;;
21979;SDS011;11154;48.558;9.234;2023-03-31T11:19:59;6.72;;;1.40;;
21979;SDS011;11154;48.558;9.234;2023-03-31T11:22:13;3.70;;;0.80;;
21979;SDS011;11154;48.558;9.234;2023-03-31T11:24:25;4.78;;;1.10;;
21979;SDS011;11154;48.558;9.234;2023-03-31T11:26:39;3.25;;;0.90;;
21979;SDS011;11154;48.558;9.234;2023-03-31T11:28:54;4.97;;;2.47;;
21979;SDS011;11154;48.558;9.234;2023-03-31T11:31:05;3.95;;;0.55;;
21979;SDS011;11154;48.558;9.234;2023-03-31T11:33:21;3.40;;;0.75;;
21979;SDS011;11154;48.558;9.234;2023-03-31T11:35:40;5.70;;;0.65;;
21979;SDS011;11154;48.558;9.234;2023-03-31T11:37:56;5.28;;;0.80;;
21979;SDS011;11154;48.558;9.234;2023-03-31T11:40:20;1.55;;;0.43;;
21979;SDS011;11154;48.558;9.234;2023-03-31T11:42:35;5.53;;;0.70;;
21979;SDS011;11154;48.558;9.234;2023-03-31T11:44:44;0.90;;;0.40;;
21979;SDS011;11154;48.558;9.234;2023-03-31T11:46:52;1.92;;;0.45;;
21979;SDS011;11154;48.558;9.234;2023-03-31T11:48:59;2.70;;;0.55;;
21979;SDS011;11154;48.558;9.234;2023-03-31T11:51:05;1.27;;;0.47;;
21979;SDS011;11154;48.558;9.234;2023-03-31T11:53:14;1.55;;;0.52;;
21979;SDS011;11154;48.558;9.234;2023-03-31T11:55:18;1.98;;;0.30;;
21979;SDS011;11154;48.558;9.234;2023-03-31T11:57:22;0.95;;;0.32;;
21979;SDS011;11154;48.558;9.234;2023-03-31T11:59:30;2.67;;;0.40;;
21979;SDS011;11154;48.558;9.234;2023-03-31T12:01:35;2.75;;;0.50;;
21979;SDS011;11154;48.558;9.234;2023-03-31T12:05:48;1.98;;;0.55;;
21979;SDS011;11154;48.558;9.234;2023-03-31T12:07:55;0.55;;;0.30;;
21979;SDS011;11154;48.558;9.234;2023-03-31T12:10:03;1.95;;;0.50;;
21979;SDS011;11154;48.558;9.234;2023-03-31T12:12:14;0.73;;;0.32;;
21979;SDS011;11154;48.558;9.234;2023-03-31T12:14:22;0.88;;;0.52;;
21979;SDS011;11154;48.558;9.234;2023-03-31T12:16:32;1.90;;;0.40;;
21979;SDS011;11154;48.558;9.234;2023-03-31T12:18:42;0.38;;;0.30;;
21979;SDS011;11154;48.558;9.234;2023-03-31T12:20:52;2.22;;;0.55;;
21979;SDS011;11154;48.558;9.234;2023-03-31T12:22:56;1.15;;;0.40;;
21979;SDS011;11154;48.558;9.234;2023-03-31T12:25:00;1.33;;;0.30;;
21979;SDS011;11154;48.558;9.234;2023-03-31T12:27:04;1.70;;;0.30;;
21979;SDS011;11154;48.558;9.234;2023-03-31T12:29:16;1.45;;;0.40;;
21979;SDS011;11154;48.558;9.234;2023-03-31T12:31:25;1.30;;;0.60;;
21979;SDS011;11154;48.558;9.234;2023-03-31T12:33:31;1.77;;;0.90;;
21979;SDS011;11154;48.558;9.234;2023-03-31T12:35:40;2.30;;;0.38;;
21979;SDS011;11154;48.558;9.234;2023-03-31T12:38:03;1.42;;;0.60;;
21979;SDS011;11154;48.558;9.234;2023-03-31T12:40:16;1.77;;;0.65;;
21979;SDS011;11154;48.558;9.234;2023-03-31T12:42:34;2.58;;;0.50;;
21979;SDS011;11154;48.558;9.234;2023-03-31T12:44:46;3.20;;;0.65;;
21979;SDS011;11154;48.558;9.234;2023-03-31T12:47:02;4.20;;;0.70;;
21979;SDS011;11154;48.558;9.234;2023-03-31T12:49:24;4.07;;;0.90;;
21979;SDS011;11154;48.558;9.234;2023-03-31T12:51:38;2.65;;;0.50;;
21979;SDS011;11154;48.558;9.234;2023-03-31T12:53:55;2.15;;;0.60;;